Time;durP1;ratioP1;P1;durP2;ratioP2;P2;SDS_P1;SDS_P2;PMS_P1;PMS_P2;Temp;Humidity;BMP_temperature;BMP_pressure;BME280_temperature;BME280_humidity;BME280_pressure;Samples;Min_cycle;Max_cycle;Signal;HPM_P1;HPM_P2
2021/06/12 00:01:06;;;;;;;4.80;2.13;;;;;;;;;;5053414;28;20456;-65
2021/06/12 00:03:36;;;;;;;4.27;1.80;;;;;;;;;;5053301;28;20508;-65
2021/06/12 00:06:03;;;;;;;5.27;2.13;;;;;;;;;;5052234;28;20459;-64
2021/06/12 00:08:29;;;;;;;3.03;1.60;;;;;;;;;;5053601;28;20462;-64
2021/06/12 00:10:56;;;;;;;3.17;1.70;;;;;;;;;;5053818;28;20452;-64
2021/06/12 00:13:24;;;;;;;3.70;2.47;;;;;;;;;;5053742;28;20452;-64
2021/06/12 00:15:51;;;;;;;2.10;1.63;;;;;;;;;;5054853;28;20482;-64
2021/06/12 00:18:18;;;;;;;2.83;1.87;;;;;;;;;;5061741;28;20959;-64
2021/06/12 00:20:44;;;;;;;3.30;1.87;;;;;;;;;;5061600;28;20452;-65
2021/06/12 00:23:11;;;;;;;2.53;1.63;;;;;;;;;;5061700;28;20487;-64
2021/06/12 00:25:38;;;;;;;2.70;1.83;;;;;;;;;;5061853;28;20562;-65
2021/06/12 00:28:06;;;;;;;2.07;1.70;;;;;;;;;;5063277;28;20467;-65
2021/06/12 00:30:34;;;;;;;1.90;1.70;;;;;;;;;;5061646;28;20456;-65
2021/06/12 00:33:01;;;;;;;3.07;1.90;;;;;;;;;;5062723;28;20440;-65
2021/06/12 00:35:28;;;;;;;4.90;1.73;;;;;;;;;;5056350;28;20448;-65
2021/06/12 00:37:55;;;;;;;3.40;2.43;;;;;;;;;;5052018;28;20468;-64
2021/06/12 00:40:23;;;;;;;3.43;2.20;;;;;;;;;;5051562;28;20470;-65
2021/06/12 00:42:50;;;;;;;5.47;2.00;;;;;;;;;;5051627;28;20497;-65
2021/06/12 00:45:18;;;;;;;3.60;2.43;;;;;;;;;;5053500;28;20546;-66
2021/06/12 00:47:46;;;;;;;2.40;2.10;;;;;;;;;;5055463;28;20502;-65
2021/06/12 00:50:13;;;;;;;2.97;2.00;;;;;;;;;;5055264;28;20454;-65
2021/06/12 00:52:41;;;;;;;2.40;2.00;;;;;;;;;;5055857;28;20863;-65
2021/06/12 00:55:09;;;;;;;4.37;2.13;;;;;;;;;;5055808;28;20479;-65
2021/06/12 00:57:36;;;;;;;3.90;2.40;;;;;;;;;;5054952;28;21445;-65
2021/06/12 01:00:03;;;;;;;4.30;2.60;;;;;;;;;;5055239;28;20452;-66
2021/06/12 01:02:29;;;;;;;4.67;2.83;;;;;;;;;;5055313;28;20479;-65
2021/06/12 01:04:57;;;;;;;3.23;2.50;;;;;;;;;;5054568;28;20947;-66
2021/06/12 01:07:24;;;;;;;3.47;2.40;;;;;;;;;;5054404;28;20484;-66
2021/06/12 01:09:50;;;;;;;4.10;2.93;;;;;;;;;;5054456;28;20459;-66
2021/06/12 01:12:20;;;;;;;4.83;3.20;;;;;;;;;;5055296;28;20452;-66
2021/06/12 01:14:50;;;;;;;6.13;3.00;;;;;;;;;;5054199;28;20456;-66
2021/06/12 01:17:21;;;;;;;3.70;2.63;;;;;;;;;;5053823;28;20475;-66
2021/06/12 01:20:03;;;;;;;3.40;2.70;;;;;;;;;;5054907;28;20483;-66
2021/06/12 01:22:35;;;;;;;3.70;2.60;;;;;;;;;;5052522;28;21175;-66
2021/06/12 01:25:05;;;;;;;3.43;2.90;;;;;;;;;;5055212;28;20438;-65
2021/06/12 01:27:44;;;;;;;4.43;2.60;;;;;;;;;;5053823;28;20475;-65
2021/06/12 01:30:15;;;;;;;3.10;2.80;;;;;;;;;;5054951;28;20454;-65
2021/06/12 01:32:42;;;;;;;3.77;3.00;;;;;;;;;;5054574;28;20444;-65
2021/06/12 01:35:12;;;;;;;3.17;2.87;;;;;;;;;;5054714;28;20443;-66
2021/06/12 01:37:40;;;;;;;3.50;3.20;;;;;;;;;;5053466;28;20467;-68
2021/06/12 01:40:07;;;;;;;3.67;3.10;;;;;;;;;;5053817;28;20969;-65
2021/06/12 01:42:35;;;;;;;4.47;2.70;;;;;;;;;;5053142;28;20479;-66
2021/06/12 01:45:02;;;;;;;3.20;2.70;;;;;;;;;;5054686;28;20501;-66
2021/06/12 01:47:31;;;;;;;3.73;3.00;;;;;;;;;;5052501;28;20467;-65
2021/06/12 01:49:58;;;;;;;4.17;3.37;;;;;;;;;;5053305;28;20447;-65
2021/06/12 01:52:26;;;;;;;4.50;3.57;;;;;;;;;;5034366;28;20446;-65
2021/06/12 01:54:53;;;;;;;4.13;2.83;;;;;;;;;;5034314;28;20453;-65
2021/06/12 01:57:20;;;;;;;3.50;3.07;;;;;;;;;;5052048;28;21012;-65
2021/06/12 01:59:47;;;;;;;2.87;2.57;;;;;;;;;;5054196;28;20454;-65
2021/06/12 02:02:14;;;;;;;2.60;2.40;;;;;;;;;;5052746;28;20479;-65
2021/06/12 02:04:42;;;;;;;4.10;3.73;;;;;;;;;;5053665;28;20447;-65
2021/06/12 02:07:09;;;;;;;3.80;3.50;;;;;;;;;;5033222;28;20473;-65
2021/06/12 02:09:37;;;;;;;3.97;3.30;;;;;;;;;;5039984;28;20458;-64
2021/06/12 02:12:05;;;;;;;5.80;3.70;;;;;;;;;;5054163;28;20452;-63
2021/06/12 02:14:31;;;;;;;5.20;3.13;;;;;;;;;;5053658;28;20459;-64
2021/06/12 02:16:58;;;;;;;5.20;3.80;;;;;;;;;;5052840;28;20480;-63
2021/06/12 02:19:25;;;;;;;4.27;3.47;;;;;;;;;;5053399;28;20457;-64
2021/06/12 02:21:53;;;;;;;6.17;3.70;;;;;;;;;;5053132;28;20475;-64
2021/06/12 02:24:20;;;;;;;3.97;3.57;;;;;;;;;;5053774;28;20962;-63
2021/06/12 02:26:51;;;;;;;6.43;4.03;;;;;;;;;;5052341;28;20475;-63
2021/06/12 02:29:18;;;;;;;6.23;3.17;;;;;;;;;;5053808;28;20923;-63
2021/06/12 02:31:47;;;;;;;5.90;3.20;;;;;;;;;;5053167;28;20451;-63
2021/06/12 02:34:13;;;;;;;3.90;3.33;;;;;;;;;;5053744;28;20463;-63
2021/06/12 02:36:40;;;;;;;7.20;3.70;;;;;;;;;;5052756;28;20497;-64
2021/06/12 02:39:08;;;;;;;6.93;4.33;;;;;;;;;;5053183;28;20452;-63
2021/06/12 02:41:35;;;;;;;4.90;3.80;;;;;;;;;;5053409;28;20544;-63
2021/06/12 02:44:02;;;;;;;3.60;3.20;;;;;;;;;;5052948;28;20459;-65
2021/06/12 02:46:30;;;;;;;5.00;3.33;;;;;;;;;;5051851;28;21013;-63
2021/06/12 02:48:59;;;;;;;3.50;3.03;;;;;;;;;;5053360;28;20460;-63
2021/06/12 02:51:25;;;;;;;5.13;3.40;;;;;;;;;;5052221;28;20456;-63
2021/06/12 02:53:54;;;;;;;4.50;3.60;;;;;;;;;;5053451;28;20443;-65
2021/06/12 02:56:22;;;;;;;4.60;3.50;;;;;;;;;;5051858;28;21025;-65
2021/06/12 02:58:49;;;;;;;5.03;4.33;;;;;;;;;;5053047;28;20459;-64
2021/06/12 03:01:16;;;;;;;8.43;4.53;;;;;;;;;;5052510;28;20448;-64
2021/06/12 03:03:43;;;;;;;4.10;3.50;;;;;;;;;;5052924;28;20455;-66
2021/06/12 03:06:10;;;;;;;4.80;4.10;;;;;;;;;;5046974;28;20506;-63
2021/06/12 03:08:37;;;;;;;4.50;4.00;;;;;;;;;;5050287;28;20451;-65
2021/06/12 03:11:05;;;;;;;4.87;3.30;;;;;;;;;;5052924;28;20452;-63
2021/06/12 03:13:34;;;;;;;5.33;4.47;;;;;;;;;;5052413;28;20969;-63
2021/06/12 03:16:02;;;;;;;5.03;4.63;;;;;;;;;;5051675;28;20462;-65
2021/06/12 03:18:28;;;;;;;4.97;4.47;;;;;;;;;;5052391;28;20440;-63
2021/06/12 03:20:56;;;;;;;6.10;4.90;;;;;;;;;;5052414;28;20482;-63
2021/06/12 03:23:23;;;;;;;6.77;4.73;;;;;;;;;;5034775;28;20567;-63
2021/06/12 03:25:51;;;;;;;6.63;3.13;;;;;;;;;;5037137;28;20463;-63
2021/06/12 03:28:18;;;;;;;5.87;4.40;;;;;;;;;;5032635;28;20451;-63
2021/06/12 03:30:46;;;;;;;5.10;4.03;;;;;;;;;;5047276;28;20530;-65
2021/06/12 03:33:13;;;;;;;5.07;4.57;;;;;;;;;;5052850;28;20444;-64
2021/06/12 03:35:40;;;;;;;5.90;5.30;;;;;;;;;;5050987;28;20513;-63
2021/06/12 03:38:07;;;;;;;5.30;4.80;;;;;;;;;;5052259;28;21052;-66
2021/06/12 03:40:34;;;;;;;4.97;4.50;;;;;;;;;;5052104;28;20455;-63
2021/06/12 03:43:01;;;;;;;5.10;4.43;;;;;;;;;;5052411;28;20486;-64
2021/06/12 03:45:29;;;;;;;5.90;5.10;;;;;;;;;;5051022;28;20543;-63
2021/06/12 03:47:59;;;;;;;5.43;4.17;;;;;;;;;;5051888;28;20524;-63
2021/06/12 03:50:27;;;;;;;5.93;5.17;;;;;;;;;;5051759;28;20440;-63
2021/06/12 03:52:54;;;;;;;5.20;4.70;;;;;;;;;;5052128;28;20987;-64
2021/06/12 03:55:21;;;;;;;5.27;4.80;;;;;;;;;;5051257;28;20483;-63
2021/06/12 03:57:49;;;;;;;5.13;4.20;;;;;;;;;;5051390;28;20476;-63
2021/06/12 04:00:16;;;;;;;5.80;4.67;;;;;;;;;;5051830;28;20460;-64
2021/06/12 04:02:43;;;;;;;4.40;3.90;;;;;;;;;;5051943;28;20514;-63
2021/06/12 04:05:11;;;;;;;5.63;5.03;;;;;;;;;;5051093;28;20497;-67
2021/06/12 04:07:38;;;;;;;9.37;5.00;;;;;;;;;;5051423;28;20564;-62
2021/06/12 04:10:05;;;;;;;6.37;5.03;;;;;;;;;;5051285;28;20455;-63
2021/06/12 04:12:31;;;;;;;6.40;4.60;;;;;;;;;;5051936;28;20448;-63
2021/06/12 04:14:58;;;;;;;7.83;5.17;;;;;;;;;;5051115;28;20443;-64
2021/06/12 04:17:25;;;;;;;5.60;5.10;;;;;;;;;;5050780;28;20483;-63
2021/06/12 04:19:51;;;;;;;6.40;5.80;;;;;;;;;;5055555;22;21013;-63
2021/06/12 04:22:19;;;;;;;5.13;4.40;;;;;;;;;;5049960;28;20605;-64
2021/06/12 04:24:46;;;;;;;5.53;5.03;;;;;;;;;;5050905;28;20510;-63
2021/06/12 04:27:12;;;;;;;5.43;4.47;;;;;;;;;;5050231;28;20458;-63
2021/06/12 04:29:39;;;;;;;6.17;4.33;;;;;;;;;;5051026;28;20467;-63
2021/06/12 04:32:06;;;;;;;4.83;4.40;;;;;;;;;;5051475;28;20496;-64
2021/06/12 04:34:33;;;;;;;4.60;4.20;;;;;;;;;;5051111;28;20447;-63
2021/06/12 04:37:02;;;;;;;4.80;3.50;;;;;;;;;;5050451;28;20448;-64
2021/06/12 04:39:30;;;;;;;4.27;3.90;;;;;;;;;;5050533;28;21002;-63
2021/06/12 04:41:57;;;;;;;4.13;3.80;;;;;;;;;;5050975;28;21013;-63
2021/06/12 04:44:23;;;;;;;4.13;3.70;;;;;;;;;;5051280;28;20502;-64
2021/06/12 04:46:50;;;;;;;4.27;3.87;;;;;;;;;;5050663;28;20457;-63
2021/06/12 04:49:16;;;;;;;4.00;3.03;;;;;;;;;;5050512;28;20471;-63
2021/06/12 04:51:43;;;;;;;4.07;3.77;;;;;;;;;;5051402;28;20443;-64
2021/06/12 04:54:10;;;;;;;4.30;3.90;;;;;;;;;;5050923;28;20448;-63
2021/06/12 04:56:38;;;;;;;6.03;5.40;;;;;;;;;;5048705;28;20452;-63
2021/06/12 04:59:05;;;;;;;5.40;4.20;;;;;;;;;;5035286;28;20476;-63
2021/06/12 05:01:32;;;;;;;5.00;4.17;;;;;;;;;;5050970;28;20486;-63
2021/06/12 05:03:58;;;;;;;3.70;3.23;;;;;;;;;;5050651;28;20448;-64
2021/06/12 05:06:25;;;;;;;5.60;4.17;;;;;;;;;;5050311;28;20462;-63
2021/06/12 05:08:51;;;;;;;5.90;5.30;;;;;;;;;;5050423;28;20498;-63
2021/06/12 05:11:18;;;;;;;5.80;4.37;;;;;;;;;;5051346;28;20448;-64
2021/06/12 05:13:46;;;;;;;6.13;4.97;;;;;;;;;;5050699;28;20455;-64
2021/06/12 05:16:14;;;;;;;4.00;3.60;;;;;;;;;;5050190;28;20935;-64
2021/06/12 05:18:42;;;;;;;5.90;5.03;;;;;;;;;;5049485;28;20480;-64
2021/06/12 05:21:09;;;;;;;5.13;4.57;;;;;;;;;;5050786;28;20444;-64
2021/06/12 05:23:36;;;;;;;5.47;4.20;;;;;;;;;;5051054;28;20487;-63
2021/06/12 05:26:04;;;;;;;4.67;4.20;;;;;;;;;;5050008;28;20466;-64
2021/06/12 05:28:31;;;;;;;6.57;5.97;;;;;;;;;;5050295;28;20460;-65
2021/06/12 05:30:59;;;;;;;5.80;4.97;;;;;;;;;;5052456;28;20857;-64
2021/06/12 05:33:25;;;;;;;5.10;4.60;;;;;;;;;;5054932;28;20462;-64
2021/06/12 05:35:52;;;;;;;6.70;5.80;;;;;;;;;;5053457;28;20450;-64
2021/06/12 05:38:19;;;;;;;6.90;5.07;;;;;;;;;;5053021;28;20452;-64
2021/06/12 05:40:46;;;;;;;6.33;5.23;;;;;;;;;;5054072;28;20459;-64
2021/06/12 05:43:13;;;;;;;5.53;4.63;;;;;;;;;;5054485;28;20487;-64
2021/06/12 05:45:40;;;;;;;7.27;6.67;;;;;;;;;;5053754;28;20467;-65
2021/06/12 05:48:08;;;;;;;6.40;5.80;;;;;;;;;;5054000;28;20950;-64
2021/06/12 05:50:35;;;;;;;10.40;7.17;;;;;;;;;;5053950;28;20474;-64
2021/06/12 05:53:01;;;;;;;6.80;6.10;;;;;;;;;;5054498;28;20451;-65
2021/06/12 05:55:28;;;;;;;7.73;7.03;;;;;;;;;;5039033;28;20443;-64
2021/06/12 05:57:54;;;;;;;7.03;6.40;;;;;;;;;;5034464;28;20452;-63
2021/06/12 06:00:22;;;;;;;8.23;7.43;;;;;;;;;;5052690;28;20464;-63
2021/06/12 06:02:48;;;;;;;9.63;6.07;;;;;;;;;;5053997;28;20513;-63
2021/06/12 06:05:16;;;;;;;7.27;5.93;;;;;;;;;;5053849;28;20456;-63
2021/06/12 06:07:43;;;;;;;8.53;6.30;;;;;;;;;;5053937;28;20802;-64
2021/06/12 06:10:10;;;;;;;9.00;6.57;;;;;;;;;;5053582;28;20467;-66
2021/06/12 06:12:36;;;;;;;8.90;8.10;;;;;;;;;;5053774;28;20448;-64
2021/06/12 06:15:04;;;;;;;9.17;7.63;;;;;;;;;;5052678;28;20558;-64
2021/06/12 06:17:30;;;;;;;9.67;8.13;;;;;;;;;;5053448;28;20861;-63
2021/06/12 06:19:57;;;;;;;7.40;6.00;;;;;;;;;;5052967;28;20490;-64
2021/06/12 06:22:25;;;;;;;10.03;9.03;;;;;;;;;;5053528;28;20989;-64
2021/06/12 06:24:51;;;;;;;8.50;6.63;;;;;;;;;;5053371;28;20456;-64
2021/06/12 06:27:18;;;;;;;6.70;6.10;;;;;;;;;;5048878;28;20464;-64
2021/06/12 06:29:45;;;;;;;7.90;6.97;;;;;;;;;;5050388;28;20487;-64
2021/06/12 06:32:11;;;;;;;9.23;8.07;;;;;;;;;;5053326;28;20977;-63
2021/06/12 06:34:38;;;;;;;7.57;6.50;;;;;;;;;;5052983;28;20456;-65
2021/06/12 06:37:05;;;;;;;10.63;9.57;;;;;;;;;;5052441;28;20443;-64
2021/06/12 06:39:33;;;;;;;9.27;6.80;;;;;;;;;;5052828;28;20480;-64
2021/06/12 06:42:02;;;;;;;6.60;6.00;;;;;;;;;;5052533;28;20459;-63
2021/06/12 06:44:29;;;;;;;11.70;10.50;;;;;;;;;;5052717;28;20459;-65
2021/06/12 06:46:56;;;;;;;11.87;10.63;;;;;;;;;;5038192;28;20457;-64
2021/06/12 06:49:23;;;;;;;6.63;5.93;;;;;;;;;;5044357;28;21166;-64
2021/06/12 06:51:49;;;;;;;11.33;10.27;;;;;;;;;;5053197;28;20489;-64
2021/06/12 06:54:16;;;;;;;12.83;10.47;;;;;;;;;;5052754;28;20452;-66
2021/06/12 06:56:44;;;;;;;9.30;8.50;;;;;;;;;;5045321;28;20456;-65
2021/06/12 06:59:10;;;;;;;9.37;8.20;;;;;;;;;;5041735;28;20475;-66
2021/06/12 07:01:37;;;;;;;13.23;12.03;;;;;;;;;;5044942;28;20459;-65
2021/06/12 07:04:04;;;;;;;8.50;7.70;;;;;;;;;;5052745;28;20488;-65
2021/06/12 07:06:31;;;;;;;10.63;9.73;;;;;;;;;;5051721;28;20550;-65
2021/06/12 07:08:58;;;;;;;8.53;7.80;;;;;;;;;;5052436;28;20474;-65
2021/06/12 07:11:24;;;;;;;9.77;8.87;;;;;;;;;;5053105;28;20687;-64
2021/06/12 07:13:52;;;;;;;8.10;7.40;;;;;;;;;;5052637;28;20448;-64
2021/06/12 07:16:19;;;;;;;8.90;8.10;;;;;;;;;;5051852;28;20447;-65
2021/06/12 07:18:45;;;;;;;8.37;7.67;;;;;;;;;;5051577;28;20469;-65
2021/06/12 07:21:12;;;;;;;7.77;7.00;;;;;;;;;;5052625;28;20522;-65
2021/06/12 07:23:39;;;;;;;7.03;6.40;;;;;;;;;;5052359;28;20487;-65
2021/06/12 07:26:06;;;;;;;10.73;9.80;;;;;;;;;;5049551;28;20480;-66
2021/06/12 07:28:32;;;;;;;9.53;8.63;;;;;;;;;;5040352;28;20466;-65
2021/06/12 07:31:00;;;;;;;6.73;5.80;;;;;;;;;;5050112;28;20482;-65
2021/06/12 07:33:27;;;;;;;7.10;6.40;;;;;;;;;;5052217;28;20455;-63
2021/06/12 07:35:54;;;;;;;8.23;6.30;;;;;;;;;;5050292;28;20468;-64
2021/06/12 07:38:20;;;;;;;5.40;4.90;;;;;;;;;;5051508;28;20489;-64
2021/06/12 07:40:47;;;;;;;6.10;5.17;;;;;;;;;;5051843;28;20467;-63
2021/06/12 07:43:18;;;;;;;6.13;4.80;;;;;;;;;;5050916;28;20545;-64
2021/06/12 07:45:45;;;;;;;5.33;4.83;;;;;;;;;;5040089;28;20471;-64
2021/06/12 07:48:13;;;;;;;6.97;5.00;;;;;;;;;;5053718;28;20865;-64
2021/06/12 07:50:39;;;;;;;5.70;5.20;;;;;;;;;;5052003;28;20468;-64
2021/06/12 07:53:06;;;;;;;7.07;5.67;;;;;;;;;;5052187;28;20448;-64
2021/06/12 07:55:33;;;;;;;6.77;4.97;;;;;;;;;;5047396;28;20460;-64
2021/06/12 07:58:00;;;;;;;4.93;4.40;;;;;;;;;;5031885;28;20948;-64
2021/06/12 08:00:27;;;;;;;4.40;3.90;;;;;;;;;;5036318;28;20467;-64
2021/06/12 08:02:53;;;;;;;5.57;4.63;;;;;;;;;;5050283;28;20479;-64
2021/06/12 08:05:21;;;;;;;5.57;4.60;;;;;;;;;;5049366;28;20483;-63
2021/06/12 08:07:48;;;;;;;4.50;4.10;;;;;;;;;;5047466;28;20488;-63
2021/06/12 08:10:15;;;;;;;7.97;4.40;;;;;;;;;;5046957;28;20471;-64
2021/06/12 08:12:41;;;;;;;5.80;4.27;;;;;;;;;;5051184;28;20474;-63
2021/06/12 08:15:09;;;;;;;5.10;4.50;;;;;;;;;;5050823;28;20820;-64
2021/06/12 08:17:35;;;;;;;4.80;4.40;;;;;;;;;;5050829;28;20470;-64
2021/06/12 08:20:02;;;;;;;6.27;5.67;;;;;;;;;;5051243;28;20529;-64
2021/06/12 08:22:30;;;;;;;5.80;4.53;;;;;;;;;;5041857;28;20495;-63
2021/06/12 08:24:57;;;;;;;4.60;3.73;;;;;;;;;;5051897;28;20496;-64
2021/06/12 08:27:23;;;;;;;6.00;5.40;;;;;;;;;;5050577;28;20916;-64
2021/06/12 08:29:50;;;;;;;9.00;5.87;;;;;;;;;;5051305;28;20476;-61
2021/06/12 08:32:17;;;;;;;8.03;5.80;;;;;;;;;;5050757;28;20444;-66
2021/06/12 08:34:44;;;;;;;5.47;4.87;;;;;;;;;;5050595;28;20516;-65
2021/06/12 08:37:11;;;;;;;6.40;5.17;;;;;;;;;;5037077;28;20964;-65
2021/06/12 08:39:39;;;;;;;6.60;4.20;;;;;;;;;;5045179;28;20474;-65
2021/06/12 08:42:06;;;;;;;6.50;4.60;;;;;;;;;;5050756;28;20462;-70
2021/06/12 08:44:34;;;;;;;6.90;6.30;;;;;;;;;;5051173;28;20454;-70
2021/06/12 08:47:01;;;;;;;5.73;5.10;;;;;;;;;;5050065;28;20455;-70
2021/06/12 08:49:28;;;;;;;9.53;5.60;;;;;;;;;;5031646;28;20468;-70
2021/06/12 08:51:54;;;;;;;10.43;4.73;;;;;;;;;;5046334;28;20464;-70
2021/06/12 08:54:23;;;;;;;7.60;4.40;;;;;;;;;;5051447;28;20443;-70
2021/06/12 08:56:51;;;;;;;7.80;5.20;;;;;;;;;;5049661;28;20547;-70
2021/06/12 08:59:18;;;;;;;10.27;5.10;;;;;;;;;;5051074;28;20470;-69
2021/06/12 09:01:45;;;;;;;5.23;4.20;;;;;;;;;;5049434;28;20451;-70
2021/06/12 09:04:12;;;;;;;5.97;3.90;;;;;;;;;;5055411;28;20479;-70
2021/06/12 09:06:38;;;;;;;5.60;3.90;;;;;;;;;;5033395;28;20444;-70
2021/06/12 09:09:05;;;;;;;4.43;3.20;;;;;;;;;;5041761;28;20467;-70
2021/06/12 09:11:34;;;;;;;8.13;4.07;;;;;;;;;;5054915;28;20452;-70
2021/06/12 09:14:03;;;;;;;5.43;3.47;;;;;;;;;;5055296;28;20504;-70
2021/06/12 09:16:31;;;;;;;6.13;4.27;;;;;;;;;;5042276;28;20448;-69
2021/06/12 09:18:59;;;;;;;5.50;3.80;;;;;;;;;;5036094;28;22175;-68
2021/06/12 09:21:27;;;;;;;4.93;3.60;;;;;;;;;;5037181;28;20460;-70
2021/06/12 09:23:54;;;;;;;5.40;3.63;;;;;;;;;;5035061;28;20583;-69
2021/06/12 09:26:21;;;;;;;5.93;4.17;;;;;;;;;;5033765;28;20440;-69
2021/06/12 09:28:52;;;;;;;7.70;3.83;;;;;;;;;;5046991;28;20471;-69
2021/06/12 09:31:21;;;;;;;7.07;3.57;;;;;;;;;;5054533;28;20907;-70
2021/06/12 09:33:48;;;;;;;6.07;3.80;;;;;;;;;;5054991;28;20443;-69
2021/06/12 09:36:15;;;;;;;5.83;3.20;;;;;;;;;;5053560;28;20450;-69
2021/06/12 09:38:42;;;;;;;3.77;2.90;;;;;;;;;;5054189;28;21004;-69
2021/06/12 09:41:35;;;;;;;6.47;3.40;;;;;;;;;;5034527;28;20448;-69
2021/06/12 09:44:02;;;;;;;4.97;3.43;;;;;;;;;;5010389;28;20526;-69
2021/06/12 09:46:38;;;;;;;4.60;2.93;;;;;;;;;;5033652;28;20448;-69
2021/06/12 09:49:05;;;;;;;4.57;2.63;;;;;;;;;;5036094;28;20475;-69
2021/06/12 09:51:32;;;;;;;6.67;3.00;;;;;;;;;;5034169;28;20964;-69
2021/06/12 09:53:59;;;;;;;5.77;3.20;;;;;;;;;;5040468;28;20951;-68
2021/06/12 09:56:26;;;;;;;4.93;2.80;;;;;;;;;;5053669;28;21121;-66
2021/06/12 09:58:53;;;;;;;5.33;2.23;;;;;;;;;;5035577;28;20499;-67
2021/06/12 10:01:22;;;;;;;3.50;2.77;;;;;;;;;;5050486;28;20455;-67
2021/06/12 10:04:07;;;;;;;3.50;2.43;;;;;;;;;;5064487;28;20483;-67
2021/06/12 10:06:34;;;;;;;5.37;2.60;;;;;;;;;;5052950;28;20450;-67
2021/06/12 10:09:02;;;;;;;3.70;2.47;;;;;;;;;;5053194;28;20501;-67
2021/06/12 10:11:30;;;;;;;4.60;2.83;;;;;;;;;;5053870;28;20502;-67
2021/06/12 10:13:57;;;;;;;3.20;2.33;;;;;;;;;;5053209;28;20494;-67
2021/06/12 10:16:25;;;;;;;4.37;2.73;;;;;;;;;;5052350;28;20466;-66
2021/06/12 10:18:53;;;;;;;4.63;2.60;;;;;;;;;;5052932;28;20848;-67
2021/06/12 10:21:20;;;;;;;3.40;2.30;;;;;;;;;;5051257;22;20922;-67
2021/06/12 10:23:47;;;;;;;4.67;2.87;;;;;;;;;;5038988;28;20484;-69
2021/06/12 10:26:16;;;;;;;4.00;2.30;;;;;;;;;;5032464;28;20461;-67
2021/06/12 10:28:43;;;;;;;4.80;2.23;;;;;;;;;;5032825;28;20448;-67
2021/06/12 10:31:11;;;;;;;5.27;2.20;;;;;;;;;;5046041;28;20994;-64
2021/06/12 10:33:40;;;;;;;2.23;1.80;;;;;;;;;;5052583;28;20951;-64
2021/06/12 10:36:12;;;;;;;4.17;2.30;;;;;;;;;;5052502;28;20493;-65
2021/06/12 10:38:38;;;;;;;4.63;2.10;;;;;;;;;;5052576;28;20459;-64
2021/06/12 10:41:15;;;;;;;4.47;1.80;;;;;;;;;;5053223;28;21018;-64
2021/06/12 10:43:41;;;;;;;4.90;2.63;;;;;;;;;;5050141;28;20530;-65
2021/06/12 10:46:12;;;;;;;4.30;3.20;;;;;;;;;;5052830;28;20460;-64
2021/06/12 10:48:44;;;;;;;9.43;3.50;;;;;;;;;;5053675;28;20467;-64
2021/06/12 10:51:11;;;;;;;5.80;2.80;;;;;;;;;;5053613;28;20543;-64
2021/06/12 10:53:42;;;;;;;3.10;1.90;;;;;;;;;;5053271;28;20845;-66
2021/06/12 10:56:09;;;;;;;6.33;2.87;;;;;;;;;;5052879;28;20527;-64
2021/06/12 10:58:43;;;;;;;4.00;1.93;;;;;;;;;;5053706;28;20443;-64
2021/06/12 11:01:12;;;;;;;4.80;2.60;;;;;;;;;;5053947;28;20466;-65
2021/06/12 11:03:42;;;;;;;5.73;2.37;;;;;;;;;;5053610;28;20929;-65
2021/06/12 11:06:31;;;;;;;5.73;2.10;;;;;;;;;;5053218;28;20455;-64
2021/06/12 11:09:13;;;;;;;2.57;1.90;;;;;;;;;;5053299;28;20456;-64
2021/06/12 11:11:41;;;;;;;5.37;1.90;;;;;;;;;;5033444;28;20475;-64
2021/06/12 11:14:22;;;;;;;3.87;1.70;;;;;;;;;;5034361;28;20441;-64
2021/06/12 11:17:14;;;;;;;2.83;1.70;;;;;;;;;;5031955;28;20519;-64
2021/06/12 11:19:42;;;;;;;4.63;1.80;;;;;;;;;;5038212;28;20462;-65
2021/06/12 11:22:25;;;;;;;2.73;2.03;;;;;;;;;;5054490;28;20455;-66
2021/06/12 11:24:53;;;;;;;3.47;1.57;;;;;;;;;;5052715;28;20447;-64
2021/06/12 11:27:25;;;;;;;3.10;1.80;;;;;;;;;;5051616;28;20459;-67
2021/06/12 11:30:15;;;;;;;4.67;2.07;;;;;;;;;;5051244;28;20476;-67
2021/06/12 11:32:43;;;;;;;3.27;1.50;;;;;;;;;;5052720;28;20824;-64
2021/06/12 11:35:10;;;;;;;3.03;2.13;;;;;;;;;;5052805;28;20467;-65
2021/06/12 11:37:38;;;;;;;2.70;1.80;;;;;;;;;;5052308;28;20463;-64
2021/06/12 11:40:07;;;;;;;2.83;2.00;;;;;;;;;;5049900;28;21231;-64
2021/06/12 11:42:51;;;;;;;3.93;2.10;;;;;;;;;;5052635;28;20451;-64
2021/06/12 11:45:21;;;;;;;3.40;1.63;;;;;;;;;;5051774;28;20456;-64
2021/06/12 11:47:47;;;;;;;3.97;2.43;;;;;;;;;;5052896;28;20447;-64
2021/06/12 11:50:14;;;;;;;5.90;1.90;;;;;;;;;;5052366;28;21013;-65
2021/06/12 11:52:42;;;;;;;3.63;1.87;;;;;;;;;;5052503;28;20443;-64
2021/06/12 11:55:13;;;;;;;3.10;1.80;;;;;;;;;;5032633;28;20505;-64
2021/06/12 11:57:40;;;;;;;6.13;2.20;;;;;;;;;;5048763;28;20444;-64
2021/06/12 12:00:25;;;;;;;6.40;2.00;;;;;;;;;;5052250;28;21026;-64
2021/06/12 12:02:59;;;;;;;2.97;1.80;;;;;;;;;;5052105;28;20487;-64
2021/06/12 12:05:30;;;;;;;3.57;2.30;;;;;;;;;;5049461;28;21004;-66
2021/06/12 12:07:56;;;;;;;3.27;1.87;;;;;;;;;;5043533;28;20444;-64
2021/06/12 12:10:24;;;;;;;3.37;1.97;;;;;;;;;;5043201;28;20464;-64
2021/06/12 12:12:51;;;;;;;4.53;2.07;;;;;;;;;;5051414;28;20490;-63
2021/06/12 12:15:33;;;;;;;2.63;1.80;;;;;;;;;;5046166;28;20468;-64
2021/06/12 12:18:03;;;;;;;3.90;1.70;;;;;;;;;;5051600;28;20450;-65
2021/06/12 12:20:29;;;;;;;2.53;1.80;;;;;;;;;;5050120;28;20483;-64
2021/06/12 12:22:56;;;;;;;3.33;1.67;;;;;;;;;;5047865;28;20487;-64
2021/06/12 12:25:26;;;;;;;3.43;1.83;;;;;;;;;;5050111;28;20455;-65
2021/06/12 12:28:01;;;;;;;5.73;1.93;;;;;;;;;;5039392;28;20465;-65
2021/06/12 12:30:28;;;;;;;4.33;1.77;;;;;;;;;;5043083;28;20590;-65
2021/06/12 12:32:55;;;;;;;2.70;1.60;;;;;;;;;;5042864;28;20444;-65
2021/06/12 12:35:23;;;;;;;3.03;2.00;;;;;;;;;;5050570;28;20551;-65
2021/06/12 12:37:50;;;;;;;3.00;2.00;;;;;;;;;;5050999;28;20448;-66
2021/06/12 12:40:16;;;;;;;3.33;1.60;;;;;;;;;;5047688;28;20930;-66
2021/06/12 12:42:43;;;;;;;2.90;1.67;;;;;;;;;;5041461;28;20846;-66
2021/06/12 12:45:10;;;;;;;2.57;1.63;;;;;;;;;;5042393;28;20447;-65
2021/06/12 12:47:37;;;;;;;3.10;1.40;;;;;;;;;;5050404;28;20513;-66
2021/06/12 12:50:05;;;;;;;3.40;1.60;;;;;;;;;;5050286;28;20982;-65
2021/06/12 12:52:33;;;;;;;3.10;1.77;;;;;;;;;;5051517;28;20448;-64
2021/06/12 12:55:00;;;;;;;2.80;1.50;;;;;;;;;;5050959;28;20455;-64
2021/06/12 12:57:27;;;;;;;3.63;1.77;;;;;;;;;;5050174;28;20452;-64
2021/06/12 12:59:54;;;;;;;4.53;1.90;;;;;;;;;;5050347;28;20451;-64
2021/06/12 13:02:21;;;;;;;3.00;1.23;;;;;;;;;;5051083;28;20463;-65
2021/06/12 13:04:48;;;;;;;2.37;1.67;;;;;;;;;;5050628;28;20947;-64
2021/06/12 13:07:16;;;;;;;3.80;1.30;;;;;;;;;;5050006;28;20457;-64
2021/06/12 13:09:45;;;;;;;2.03;1.27;;;;;;;;;;5049145;28;20807;-64
2021/06/12 13:12:13;;;;;;;4.30;1.47;;;;;;;;;;5051195;28;20505;-64
2021/06/12 13:14:41;;;;;;;4.63;1.50;;;;;;;;;;5049408;28;20470;-64
2021/06/12 13:17:08;;;;;;;2.10;1.50;;;;;;;;;;5036160;28;20452;-64
2021/06/12 13:19:36;;;;;;;3.57;1.87;;;;;;;;;;5048733;28;20475;-64
2021/06/12 13:22:03;;;;;;;4.97;2.03;;;;;;;;;;5050934;28;20537;-64
2021/06/12 13:24:30;;;;;;;3.63;1.73;;;;;;;;;;5051493;28;20491;-65
2021/06/12 13:26:59;;;;;;;2.53;1.30;;;;;;;;;;5041111;28;20455;-63
2021/06/12 13:29:28;;;;;;;3.37;1.70;;;;;;;;;;5031560;28;20460;-63
2021/06/12 13:31:55;;;;;;;2.73;1.80;;;;;;;;;;5040858;28;20471;-63
2021/06/12 13:34:29;;;;;;;2.97;1.50;;;;;;;;;;5051874;28;20725;-63
2021/06/12 13:36:58;;;;;;;5.40;1.60;;;;;;;;;;5041830;28;20881;-64
2021/06/12 13:39:35;;;;;;;3.07;1.53;;;;;;;;;;5052196;28;20458;-63
2021/06/12 13:42:10;;;;;;;4.53;1.90;;;;;;;;;;5051682;28;20817;-63
2021/06/12 13:44:37;;;;;;;3.63;1.60;;;;;;;;;;5051766;28;21077;-63
2021/06/12 13:47:04;;;;;;;2.50;1.63;;;;;;;;;;5041557;28;20975;-63
2021/06/12 13:49:31;;;;;;;4.93;1.50;;;;;;;;;;5031277;28;20866;-63
2021/06/12 13:51:57;;;;;;;2.50;1.43;;;;;;;;;;5041747;28;20471;-63
2021/06/12 13:54:24;;;;;;;3.40;1.77;;;;;;;;;;5055412;28;20454;-63
2021/06/12 13:56:51;;;;;;;4.30;1.87;;;;;;;;;;5055079;28;20501;-63
2021/06/12 13:59:21;;;;;;;2.90;1.20;;;;;;;;;;5060254;28;20460;-63
2021/06/12 14:01:48;;;;;;;2.70;1.37;;;;;;;;;;5061364;28;20479;-64
2021/06/12 14:04:14;;;;;;;4.20;1.53;;;;;;;;;;5063297;28;20509;-64
2021/06/12 14:06:41;;;;;;;3.10;1.70;;;;;;;;;;5061987;28;20451;-64
2021/06/12 14:09:07;;;;;;;2.97;1.50;;;;;;;;;;5061702;28;20531;-63
2021/06/12 14:11:34;;;;;;;3.00;1.50;;;;;;;;;;5061103;28;20478;-65
2021/06/12 14:14:01;;;;;;;3.93;1.80;;;;;;;;;;5047183;28;20459;-63
2021/06/12 14:16:29;;;;;;;4.23;1.67;;;;;;;;;;5053742;28;20456;-63
2021/06/12 14:18:55;;;;;;;3.30;1.60;;;;;;;;;;5055477;28;20474;-63
2021/06/12 14:21:23;;;;;;;3.20;1.73;;;;;;;;;;5051295;28;20483;-63
2021/06/12 14:23:49;;;;;;;2.47;1.50;;;;;;;;;;5054490;28;20495;-63
2021/06/12 14:26:16;;;;;;;3.63;1.93;;;;;;;;;;5054270;28;20455;-63
2021/06/12 14:28:43;;;;;;;3.50;2.00;;;;;;;;;;5054902;28;20448;-63
2021/06/12 14:31:09;;;;;;;3.70;1.70;;;;;;;;;;5054247;28;20492;-63
2021/06/12 14:33:37;;;;;;;3.13;1.60;;;;;;;;;;5054004;28;20947;-63
2021/06/12 14:36:05;;;;;;;3.50;1.37;;;;;;;;;;5055082;28;20458;-63
2021/06/12 14:38:32;;;;;;;3.80;2.10;;;;;;;;;;5053630;28;20460;-63
2021/06/12 14:40:59;;;;;;;2.77;1.87;;;;;;;;;;5062076;28;20479;-63
2021/06/12 14:43:25;;;;;;;2.43;1.80;;;;;;;;;;5059861;28;20487;-64
2021/06/12 14:45:52;;;;;;;4.10;1.90;;;;;;;;;;5062707;28;20448;-63
2021/06/12 14:48:18;;;;;;;3.00;1.47;;;;;;;;;;5063031;28;20541;-63